createdAt,value
2019-03-05T00:01:23.385Z,2.60
2019-03-05T00:03:53.978Z,2.20
2019-03-05T00:06:24.275Z,1.87
2019-03-05T00:08:55.099Z,2.67
2019-03-05T00:11:25.530Z,1.93
2019-03-05T00:13:56.851Z,2.33
2019-03-05T00:16:27.505Z,2.40
2019-03-05T00:18:59.039Z,2.05
2019-03-05T00:21:29.340Z,2.00
2019-03-05T00:24:36.350Z,2.35
2019-03-05T00:27:07.526Z,2.05
2019-03-05T00:30:14.389Z,2.67
2019-03-05T00:32:45.704Z,2.23
2019-03-05T00:36:10.365Z,2.22
2019-03-05T00:39:21.764Z,2.20
2019-03-05T00:42:18.976Z,1.93
2019-03-05T00:45:42.382Z,2.17
2019-03-05T00:49:01.410Z,1.93
2019-03-05T00:52:13.295Z,1.80
2019-03-05T00:55:21.435Z,2.67
2019-03-05T00:58:22.378Z,2.40
2019-03-05T01:01:30.368Z,2.65
2019-03-05T01:04:23.599Z,2.30
2019-03-05T01:06:54.439Z,2.23
2019-03-05T01:09:25.199Z,1.90
2019-03-05T01:11:55.933Z,1.60
2019-03-05T01:14:26.619Z,2.10
2019-03-05T01:16:57.201Z,2.22
2019-03-05T01:19:28.152Z,2.20
2019-03-05T01:21:59.705Z,2.32
2019-03-05T01:24:30.214Z,1.90
2019-03-05T01:27:04.072Z,2.27
2019-03-05T01:29:34.398Z,1.80
2019-03-05T01:32:24.248Z,2.30
2019-03-05T01:35:20.501Z,1.67
2019-03-05T01:37:51.186Z,2.10
2019-03-05T01:40:36.776Z,1.20
2019-03-05T01:43:08.612Z,1.70
2019-03-05T01:45:39.071Z,1.57
2019-03-05T01:48:10.564Z,1.20
2019-03-05T01:50:41.141Z,1.20
2019-03-05T01:53:11.765Z,1.43
2019-03-05T01:55:42.197Z,1.17
2019-03-05T01:58:12.749Z,1.50
2019-03-05T02:00:43.210Z,1.50
2019-03-05T02:03:13.826Z,1.07
2019-03-05T02:05:44.440Z,1.67
2019-03-05T02:08:14.910Z,1.37
2019-03-05T02:10:45.429Z,1.23
2019-03-05T02:13:16.091Z,1.10
2019-03-05T02:15:46.498Z,1.20
2019-03-05T02:18:20.559Z,1.10
2019-03-05T02:20:51.431Z,1.00
2019-03-05T02:23:50.145Z,1.10
2019-03-05T02:26:51.380Z,1.30
2019-03-05T02:29:32.817Z,1.50
2019-03-05T02:32:40.514Z,1.50
2019-03-05T02:35:49.189Z,1.30
2019-03-05T02:38:51.377Z,1.55
2019-03-05T02:41:58.168Z,1.73
2019-03-05T02:44:59.160Z,1.80
2019-03-05T02:48:29.494Z,1.25
2019-03-05T02:51:27.723Z,1.77
2019-03-05T02:54:48.218Z,1.60
2019-03-05T02:57:19.559Z,1.70
2019-03-05T02:59:49.848Z,1.90
2019-03-05T03:02:39.723Z,1.40
2019-03-05T03:05:39.317Z,1.70
2019-03-05T03:08:09.828Z,1.40
2019-03-05T03:10:40.366Z,1.72
2019-03-05T03:13:10.689Z,1.80
2019-03-05T03:15:41.887Z,1.50
2019-03-05T03:18:12.155Z,1.77
2019-03-05T03:20:44.051Z,2.17
2019-03-05T03:23:14.357Z,1.33
2019-03-05T03:25:44.909Z,1.30
2019-03-05T03:28:15.341Z,1.80
2019-03-05T03:30:45.942Z,1.40
2019-03-05T03:33:16.437Z,1.50
2019-03-05T03:35:47.047Z,1.27
2019-03-05T03:38:17.627Z,1.60
2019-03-05T03:40:48.285Z,1.50
2019-03-05T03:43:19.100Z,2.02
2019-03-05T03:45:50.830Z,1.33
2019-03-05T03:48:21.388Z,1.45
2019-03-05T03:50:52.808Z,1.50
2019-03-05T03:53:24.565Z,1.83
2019-03-05T03:55:54.987Z,1.87
2019-03-05T03:58:25.390Z,1.70
2019-03-05T04:00:57.772Z,1.50
2019-03-05T04:03:28.128Z,1.40
2019-03-05T04:05:58.772Z,1.80
2019-03-05T04:08:30.261Z,1.50
2019-03-05T04:11:01.093Z,1.57
2019-03-05T04:13:32.773Z,1.82
2019-03-05T04:16:03.081Z,1.90
2019-03-05T04:18:33.397Z,1.55
2019-03-05T04:21:04.837Z,1.60
2019-03-05T04:23:36.360Z,1.50
2019-03-05T04:26:06.716Z,1.50
2019-03-05T04:28:37.271Z,1.40
2019-03-05T04:31:07.925Z,1.33
2019-03-05T04:33:38.213Z,2.00
2019-03-05T04:36:09.081Z,1.92
2019-03-05T04:38:39.389Z,1.60
2019-03-05T04:41:09.693Z,1.85
2019-03-05T04:43:40.062Z,1.67
2019-03-05T04:46:28.266Z,1.50
2019-03-05T04:49:17.763Z,1.80
2019-03-05T04:51:53.149Z,1.70
2019-03-05T04:54:23.766Z,1.52
2019-03-05T04:56:54.938Z,1.70
2019-03-05T04:59:25.300Z,1.67
2019-03-05T05:01:55.691Z,2.27
2019-03-05T05:04:25.981Z,1.60
2019-03-05T05:06:56.564Z,1.77
2019-03-05T05:09:27.188Z,1.48
2019-03-05T05:11:57.571Z,1.67
2019-03-05T05:14:27.886Z,1.72
2019-03-05T05:16:58.253Z,1.80
2019-03-05T05:19:28.782Z,1.65
2019-03-05T05:21:59.171Z,1.90
2019-03-05T05:24:29.781Z,2.10
2019-03-05T05:27:00.092Z,1.67
2019-03-05T05:29:30.424Z,1.70
2019-03-05T05:32:01.025Z,1.90
2019-03-05T05:34:31.397Z,2.13
2019-03-05T05:37:03.654Z,1.80
2019-03-05T05:40:09.513Z,2.13
2019-03-05T05:42:39.801Z,2.87
2019-03-05T05:45:14.050Z,1.80
2019-03-05T05:47:44.349Z,2.30
2019-03-05T05:50:14.897Z,1.90
2019-03-05T05:52:45.208Z,2.10
2019-03-05T05:55:15.832Z,1.57
2019-03-05T05:57:46.486Z,1.90
2019-03-05T06:00:17.643Z,1.73
2019-03-05T06:02:47.938Z,1.70
2019-03-05T06:05:18.345Z,1.37
2019-03-05T06:07:48.692Z,1.70
2019-03-05T06:10:19.012Z,1.72
2019-03-05T06:12:49.450Z,1.50
2019-03-05T06:15:21.458Z,1.82
2019-03-05T06:17:51.802Z,1.70
2019-03-05T06:20:22.717Z,1.87
2019-03-05T06:22:53.281Z,1.50
2019-03-05T06:25:23.758Z,1.93
2019-03-05T06:27:54.379Z,1.60
2019-03-05T06:30:26.065Z,1.60
2019-03-05T06:32:56.677Z,1.70
2019-03-05T06:35:26.990Z,2.17
2019-03-05T06:37:57.606Z,2.20
2019-03-05T06:40:28.110Z,2.37
2019-03-05T06:42:58.718Z,1.50
2019-03-05T06:45:29.151Z,1.30
2019-03-05T06:47:59.733Z,1.50
2019-03-05T06:50:30.052Z,2.00
2019-03-05T06:53:00.699Z,1.50
2019-03-05T06:55:31.022Z,1.20
2019-03-05T06:58:02.743Z,1.27
2019-03-05T07:00:38.776Z,1.30
2019-03-05T07:03:11.594Z,1.40
2019-03-05T07:06:17.830Z,1.53
2019-03-05T07:08:56.316Z,1.00
2019-03-05T07:12:07.796Z,1.10
2019-03-05T07:15:15.148Z,0.73
2019-03-05T07:17:49.475Z,0.53
2019-03-05T07:20:58.136Z,0.73
2019-03-05T07:24:01.415Z,0.80
2019-03-05T07:26:33.184Z,1.12
2019-03-05T07:29:04.815Z,1.00
2019-03-05T07:31:37.644Z,1.10
2019-03-05T07:34:12.518Z,1.27
2019-03-05T07:36:45.274Z,1.07
2019-03-05T07:39:21.728Z,1.60
2019-03-05T07:41:52.543Z,1.57
2019-03-05T07:44:24.099Z,1.50
2019-03-05T07:46:54.520Z,1.30
2019-03-05T07:49:25.174Z,1.60
2019-03-05T07:51:55.668Z,1.40
2019-03-05T07:54:26.064Z,1.43
2019-03-05T07:56:57.590Z,1.53
2019-03-05T07:59:27.993Z,1.60
2019-03-05T08:01:59.624Z,1.50
2019-03-05T08:04:31.006Z,1.43
2019-03-05T08:07:01.322Z,1.83
2019-03-05T08:09:36.377Z,1.92
2019-03-05T08:12:50.672Z,2.10
2019-03-05T08:16:09.578Z,2.40
2019-03-05T08:18:39.872Z,2.63
2019-03-05T08:21:10.223Z,2.60
2019-03-05T08:23:41.984Z,3.10
2019-03-05T08:26:12.477Z,2.50
2019-03-05T08:28:42.890Z,2.40
2019-03-05T08:31:14.490Z,2.50
2019-03-05T08:33:45.133Z,2.30
2019-03-05T08:36:15.479Z,2.40
2019-03-05T08:38:46.091Z,2.20
2019-03-05T08:41:16.512Z,2.60
2019-03-05T08:43:46.938Z,2.70
2019-03-05T08:46:17.380Z,2.40
2019-03-05T08:48:48.851Z,2.33
2019-03-05T08:51:19.155Z,2.53
2019-03-05T08:53:51.919Z,2.60
2019-03-05T08:56:22.263Z,2.27
2019-03-05T08:58:54.241Z,2.35
2019-03-05T09:01:24.681Z,1.87
2019-03-05T09:03:55.269Z,1.97
2019-03-05T09:06:25.643Z,1.90
2019-03-05T09:08:56.305Z,2.20
2019-03-05T09:11:26.639Z,2.30
2019-03-05T09:13:57.142Z,2.20
2019-03-05T09:16:27.770Z,2.87
2019-03-05T09:18:58.395Z,3.30
2019-03-05T09:21:28.998Z,2.45
2019-03-05T09:23:59.323Z,2.67
2019-03-05T09:26:30.990Z,2.08
2019-03-05T09:29:01.363Z,2.13
2019-03-05T09:31:31.868Z,2.17
2019-03-05T09:34:02.242Z,2.10
2019-03-05T09:36:34.476Z,2.40
2019-03-05T09:39:07.623Z,2.43
2019-03-05T09:41:39.869Z,2.05
2019-03-05T09:44:10.505Z,2.00
2019-03-05T09:46:43.307Z,2.08
2019-03-05T09:49:13.625Z,2.30
2019-03-05T09:51:44.539Z,2.30
2019-03-05T09:54:14.943Z,2.30
2019-03-05T09:56:47.507Z,1.55
2019-03-05T09:59:17.828Z,1.85
2019-03-05T10:01:53.871Z,2.20
2019-03-05T10:04:24.215Z,1.90
2019-03-05T10:06:56.399Z,2.65
2019-03-05T10:09:26.923Z,1.97
2019-03-05T10:11:58.463Z,1.90
2019-03-05T10:14:28.983Z,2.00
2019-03-05T10:16:59.296Z,2.53
2019-03-05T10:19:30.024Z,2.00
2019-03-05T10:22:00.434Z,2.10
2019-03-05T10:24:31.188Z,2.40
2019-03-05T10:27:01.711Z,2.13
2019-03-05T10:29:32.474Z,2.03
2019-03-05T10:32:03.130Z,2.40
2019-03-05T10:34:33.523Z,2.30
2019-03-05T10:37:12.679Z,2.00
2019-03-05T10:39:38.050Z,2.50
2019-03-05T10:42:08.428Z,3.10
2019-03-05T10:44:39.418Z,2.58
2019-03-05T10:47:09.829Z,2.87
2019-03-05T10:49:40.139Z,2.93
2019-03-05T10:52:10.818Z,2.63
2019-03-05T10:54:43.492Z,2.40
2019-03-05T10:57:15.270Z,2.73
2019-03-05T10:59:46.450Z,3.50
2019-03-05T11:02:17.851Z,3.53
2019-03-05T11:04:51.555Z,3.60
2019-03-05T11:07:21.784Z,3.47
2019-03-05T11:09:53.515Z,7.53
2019-03-05T11:12:23.831Z,3.90
2019-03-05T11:14:54.893Z,3.50
2019-03-05T11:17:25.571Z,4.40
2019-03-05T11:19:56.183Z,3.70
2019-03-05T11:22:26.815Z,3.20
2019-03-05T11:24:57.225Z,2.67
2019-03-05T11:27:27.978Z,1.67
2019-03-05T11:29:58.273Z,1.87
2019-03-05T11:32:28.977Z,1.80
2019-03-05T11:34:59.427Z,1.90
2019-03-05T11:37:30.124Z,1.90
2019-03-05T11:40:00.550Z,1.83
2019-03-05T11:42:32.037Z,2.15
2019-03-05T11:45:07.566Z,2.23
2019-03-05T11:47:36.727Z,2.30
2019-03-05T11:50:08.580Z,2.20
2019-03-05T11:52:39.242Z,1.70
2019-03-05T11:55:11.555Z,2.40
2019-03-05T11:57:42.239Z,2.00
2019-03-05T12:00:17.592Z,2.20
2019-03-05T12:02:49.018Z,2.30
2019-03-05T12:05:20.498Z,2.27
2019-03-05T12:07:51.584Z,1.95
2019-03-05T12:10:21.934Z,1.63
2019-03-05T12:12:54.441Z,2.40
2019-03-05T12:15:25.058Z,2.20
2019-03-05T12:17:55.931Z,1.97
2019-03-05T12:20:26.331Z,2.00
2019-03-05T12:22:58.872Z,1.85
2019-03-05T12:25:29.228Z,1.40
2019-03-05T12:28:09.753Z,1.50
2019-03-05T12:30:31.796Z,2.75
2019-03-05T12:33:02.160Z,1.90
2019-03-05T12:35:35.392Z,2.50
2019-03-05T12:38:05.608Z,3.67
2019-03-05T12:40:35.939Z,3.30
2019-03-05T12:43:06.533Z,2.90
2019-03-05T12:45:37.135Z,2.60
2019-03-05T12:48:07.442Z,2.23
2019-03-05T12:50:38.369Z,2.20
2019-03-05T12:53:08.856Z,2.07
2019-03-05T12:55:39.277Z,2.00
2019-03-05T12:58:09.733Z,1.80
2019-03-05T13:00:42.444Z,1.60
2019-03-05T13:03:14.168Z,1.40
2019-03-05T13:05:46.944Z,1.74
2019-03-05T13:08:17.419Z,2.00
2019-03-05T13:10:47.982Z,1.50
2019-03-05T13:13:18.457Z,1.53
2019-03-05T13:15:48.895Z,1.60
2019-03-05T13:18:19.860Z,1.47
2019-03-05T13:20:50.181Z,1.60
2019-03-05T13:23:20.885Z,1.40
2019-03-05T13:25:51.269Z,1.30
2019-03-05T13:28:21.731Z,1.53
2019-03-05T13:30:52.188Z,1.50
2019-03-05T13:33:22.746Z,1.47
2019-03-05T13:35:53.229Z,1.70
2019-03-05T13:38:23.797Z,1.80
2019-03-05T13:40:54.153Z,2.00
2019-03-05T13:43:24.763Z,1.70
2019-03-05T13:45:55.078Z,1.40
2019-03-05T13:49:01.509Z,1.40
2019-03-05T13:52:16.197Z,1.30
2019-03-05T13:55:34.173Z,2.10
2019-03-05T13:59:06.848Z,1.20
2019-03-05T14:01:39.187Z,1.42
2019-03-05T14:04:16.698Z,1.50
2019-03-05T14:07:33.152Z,1.30
2019-03-05T14:10:03.898Z,1.42
2019-03-05T14:12:35.473Z,1.13
2019-03-05T14:15:08.034Z,2.13
2019-03-05T14:17:41.753Z,2.07
2019-03-05T14:20:15.356Z,1.40
2019-03-05T14:22:49.234Z,2.60
2019-03-05T14:25:19.901Z,1.67
2019-03-05T14:27:50.211Z,1.57
2019-03-05T14:30:21.368Z,1.40
2019-03-05T14:32:51.940Z,1.37
2019-03-05T14:35:25.006Z,1.50
2019-03-05T14:37:55.631Z,0.90
2019-03-05T14:40:29.035Z,1.12
2019-03-05T14:42:59.574Z,1.20
2019-03-05T14:45:32.392Z,1.90
2019-03-05T14:48:04.374Z,2.00
2019-03-05T14:50:36.787Z,3.02
2019-03-05T14:53:07.423Z,1.70
2019-03-05T14:55:38.035Z,1.37
2019-03-05T14:58:08.336Z,3.30
2019-03-05T15:00:40.645Z,3.17
2019-03-05T15:03:12.153Z,1.40
2019-03-05T15:05:42.911Z,1.32
2019-03-05T15:08:13.484Z,1.27
2019-03-05T15:10:43.904Z,1.85
2019-03-05T15:13:19.698Z,2.60
2019-03-05T15:15:49.170Z,2.97
2019-03-05T15:18:19.914Z,2.20
2019-03-05T15:20:50.581Z,2.40
2019-03-05T15:23:21.060Z,2.30
2019-03-05T15:25:53.183Z,3.90
2019-03-05T15:28:27.595Z,4.40
2019-03-05T15:31:01.141Z,3.13
2019-03-05T15:33:33.873Z,3.17
2019-03-05T15:36:04.586Z,2.20
2019-03-05T15:38:35.087Z,2.40
2019-03-05T15:41:06.217Z,1.66
2019-03-05T15:43:36.638Z,2.00
2019-03-05T15:46:08.620Z,2.42
2019-03-05T15:48:39.235Z,2.83
2019-03-05T15:51:11.028Z,2.50
2019-03-05T15:53:41.400Z,1.80
2019-03-05T15:56:12.259Z,2.00
2019-03-05T15:58:42.941Z,2.20
2019-03-05T16:01:22.057Z,1.75
2019-03-05T16:03:46.877Z,2.17
2019-03-05T16:06:19.062Z,1.80
2019-03-05T16:08:49.370Z,1.77
2019-03-05T16:11:19.755Z,2.10
2019-03-05T16:13:52.192Z,1.60
2019-03-05T16:16:24.706Z,2.67
2019-03-05T16:18:55.429Z,2.52
2019-03-05T16:21:31.740Z,2.60
2019-03-05T16:24:02.868Z,3.07
2019-03-05T16:26:34.678Z,2.37
2019-03-05T16:32:15.043Z,2.65
2019-03-05T16:35:06.136Z,2.44
2019-03-05T16:37:49.564Z,1.53
2019-03-05T16:40:45.786Z,1.60
2019-03-05T16:43:28.352Z,1.80
2019-03-05T16:46:16.843Z,1.70
2019-03-05T16:49:04.897Z,2.40
2019-03-05T16:52:09.354Z,1.60
2019-03-05T16:54:51.933Z,1.50
2019-03-05T16:57:53.992Z,1.70
2019-03-05T17:00:58.692Z,1.95
2019-03-05T17:03:46.533Z,2.10
2019-03-05T17:06:35.281Z,2.27
2019-03-05T17:09:23.789Z,2.10
2019-03-05T17:11:57.796Z,1.47
2019-03-05T17:14:28.506Z,1.75
2019-03-05T17:16:59.127Z,1.60
2019-03-05T17:19:29.528Z,1.50
2019-03-05T17:22:00.044Z,1.53
2019-03-05T17:24:32.038Z,2.30
2019-03-05T17:27:02.758Z,3.07
2019-03-05T17:29:34.855Z,3.22
2019-03-05T17:32:05.169Z,4.30
2019-03-05T17:34:38.398Z,3.50
2019-03-05T17:37:10.137Z,2.73
2019-03-05T17:39:40.931Z,2.40
2019-03-05T17:42:11.302Z,2.40
2019-03-05T17:44:42.363Z,2.13
2019-03-05T17:47:13.040Z,2.45
2019-03-05T17:49:43.450Z,2.07
2019-03-05T17:52:13.816Z,2.20
2019-03-05T17:54:44.586Z,1.97
2019-03-05T17:57:15.619Z,2.35
2019-03-05T17:59:47.228Z,2.00
2019-03-05T18:02:17.957Z,2.22
2019-03-05T18:04:48.599Z,2.00
2019-03-05T18:07:19.269Z,1.85
2019-03-05T18:09:49.578Z,1.80
2019-03-05T18:12:20.050Z,1.90
2019-03-05T18:14:51.006Z,1.80
2019-03-05T18:17:22.331Z,1.70
2019-03-05T18:19:53.155Z,1.70
2019-03-05T18:22:23.585Z,1.67
2019-03-05T18:24:56.200Z,1.70
2019-03-05T18:27:27.032Z,1.70
2019-03-05T18:29:57.561Z,1.87
2019-03-05T18:32:27.989Z,1.70
2019-03-05T18:34:58.667Z,1.60
2019-03-05T18:37:29.809Z,1.83
2019-03-05T18:40:00.362Z,1.90
2019-03-05T18:42:33.055Z,1.20
2019-03-05T18:47:54.233Z,1.70
2019-03-05T18:50:25.184Z,1.40
2019-03-05T18:52:56.289Z,1.75
2019-03-05T18:55:26.711Z,1.80
2019-03-05T18:57:57.132Z,1.90
2019-03-05T19:00:27.613Z,2.13
2019-03-05T19:02:59.553Z,1.80
2019-03-05T19:05:30.183Z,2.50
2019-03-05T19:08:00.496Z,2.50
2019-03-05T19:10:32.033Z,2.33
2019-03-05T19:13:02.726Z,2.05
2019-03-05T19:15:33.077Z,1.83
2019-03-05T19:18:06.535Z,1.64
2019-03-05T19:20:36.844Z,2.10
2019-03-05T19:23:09.895Z,1.70
2019-03-05T19:25:40.423Z,1.60
2019-03-05T19:28:13.674Z,1.83
2019-03-05T19:30:44.438Z,2.20
2019-03-05T19:33:16.094Z,2.58
2019-03-05T19:35:46.436Z,2.03
2019-03-05T19:38:17.444Z,2.63
2019-03-05T19:40:49.447Z,2.87
2019-03-05T19:43:23.433Z,2.87
2019-03-05T19:45:53.990Z,2.80
2019-03-05T19:48:25.698Z,2.58
2019-03-05T19:50:56.303Z,2.50
2019-03-05T19:53:27.835Z,2.50
2019-03-05T19:55:58.219Z,2.53
2019-03-05T19:58:28.888Z,2.95
2019-03-05T20:01:14.742Z,2.87
2019-03-05T20:03:48.393Z,2.57
2019-03-05T20:06:19.975Z,2.53
2019-03-05T20:08:50.692Z,2.10
2019-03-05T20:11:21.114Z,2.23
2019-03-05T20:13:52.412Z,1.97
2019-03-05T20:16:23.377Z,2.20
2019-03-05T20:18:54.711Z,1.70
2019-03-05T20:21:25.174Z,2.17
2019-03-05T20:23:55.629Z,2.03
2019-03-05T20:26:26.253Z,2.03
2019-03-05T20:28:56.624Z,1.83
2019-03-05T20:31:28.367Z,1.80
2019-03-05T20:33:59.123Z,1.87
2019-03-05T20:36:29.581Z,2.00
2019-03-05T20:39:00.269Z,2.10
2019-03-05T20:41:32.916Z,2.30
2019-03-05T20:44:03.466Z,2.13
2019-03-05T20:46:35.101Z,1.82
2019-03-05T20:49:06.594Z,2.30
2019-03-05T20:51:37.239Z,2.05
2019-03-05T20:54:07.862Z,2.20
2019-03-05T20:56:38.927Z,2.00
2019-03-05T20:59:09.540Z,2.30
2019-03-05T21:01:40.248Z,2.33
2019-03-05T21:04:10.713Z,2.70
2019-03-05T21:06:42.608Z,2.96
2019-03-05T21:14:39.799Z,2.47
2019-03-05T21:17:10.375Z,2.50
2019-03-05T21:19:44.475Z,2.60
2019-03-05T21:22:14.872Z,2.40
2019-03-05T21:24:47.417Z,2.47
2019-03-05T21:27:20.793Z,2.20
2019-03-05T21:29:53.240Z,1.90
2019-03-05T21:32:27.339Z,2.30
2019-03-05T21:34:58.983Z,1.90
2019-03-05T21:37:38.187Z,1.87
2019-03-05T21:40:23.758Z,2.20
2019-03-05T21:42:59.126Z,2.33
2019-03-05T21:45:32.335Z,2.57
2019-03-05T21:48:04.342Z,2.10
2019-03-05T21:50:41.719Z,2.20
2019-03-05T21:53:12.156Z,2.20
2019-03-05T21:55:45.512Z,2.30
2019-03-05T21:58:16.327Z,1.80
2019-03-05T22:01:02.623Z,1.77
2019-03-05T22:03:34.863Z,2.35
2019-03-05T22:06:05.917Z,1.80
2019-03-05T22:08:37.455Z,1.70
2019-03-05T22:11:13.572Z,1.67
2019-03-05T22:13:44.313Z,1.85
2019-03-05T22:16:15.029Z,2.33
2019-03-05T22:18:45.710Z,2.00
2019-03-05T22:21:18.347Z,2.00
2019-03-05T22:23:48.695Z,1.97
2019-03-05T22:26:19.347Z,1.70
2019-03-05T22:28:49.924Z,1.50
2019-03-05T22:31:20.509Z,1.80
2019-03-05T22:33:50.965Z,1.60
2019-03-05T22:36:23.034Z,2.03
2019-03-05T22:38:54.757Z,1.95
2019-03-05T22:41:25.216Z,1.60
2019-03-05T22:43:55.938Z,1.90
2019-03-05T22:46:27.263Z,1.70
2019-03-05T22:49:13.302Z,1.87
2019-03-05T22:51:47.879Z,1.97
2019-03-05T22:54:18.241Z,2.73
2019-03-05T22:56:49.553Z,2.47
2019-03-05T22:59:20.295Z,2.12
2019-03-05T23:01:51.185Z,1.73
2019-03-05T23:04:37.118Z,1.90
2019-03-05T23:07:14.224Z,2.00
2019-03-05T23:09:48.526Z,2.00
2019-03-05T23:12:26.448Z,2.70
2019-03-05T23:14:59.437Z,2.30
2019-03-05T23:17:31.796Z,2.30
2019-03-05T23:20:02.237Z,2.10
2019-03-05T23:22:40.022Z,2.03
2019-03-05T23:25:11.601Z,2.10
2019-03-05T23:27:44.531Z,2.22
2019-03-05T23:30:15.717Z,1.80
2019-03-05T23:32:49.938Z,2.00
2019-03-05T23:35:23.078Z,2.13
2019-03-05T23:37:56.962Z,2.63
2019-03-05T23:40:27.676Z,2.23
2019-03-05T23:42:58.510Z,2.22
2019-03-05T23:45:30.446Z,2.10
2019-03-05T23:48:02.431Z,2.90
2019-03-05T23:50:33.139Z,2.40
2019-03-05T23:53:03.740Z,2.20
2019-03-05T23:55:34.142Z,2.43
2019-03-05T23:58:04.672Z,2.53
